createdAt,value
2017-10-15T00:01:53.253Z,68.70
2017-10-15T00:04:20.875Z,69.40
2017-10-15T00:09:16.169Z,69.10
2017-10-15T00:11:43.794Z,68.90
2017-10-15T00:14:11.419Z,69.70
2017-10-15T00:16:39.118Z,70.00
2017-10-15T00:19:06.740Z,71.40
2017-10-15T00:21:35.174Z,71.50
2017-10-15T00:24:02.867Z,69.80
2017-10-15T00:26:30.486Z,69.70
2017-10-15T00:28:58.126Z,70.20
2017-10-15T00:31:25.808Z,70.30
2017-10-15T00:33:53.439Z,70.80
2017-10-15T00:36:21.061Z,71.50
2017-10-15T00:38:48.755Z,71.00
2017-10-15T00:43:55.503Z,71.70
2017-10-15T00:46:23.123Z,72.20
2017-10-15T00:48:50.745Z,72.10
2017-10-15T00:53:46.044Z,70.80
2017-10-15T00:56:13.664Z,71.10
2017-10-15T00:58:42.167Z,70.90
2017-10-15T01:01:09.808Z,71.60
2017-10-15T01:03:37.420Z,72.20
2017-10-15T01:06:05.117Z,73.40
2017-10-15T01:08:32.760Z,74.80
2017-10-15T01:11:00.379Z,75.40
2017-10-15T01:13:28.051Z,74.40
2017-10-15T01:18:23.291Z,74.10
2017-10-15T01:20:50.959Z,75.00
2017-10-15T01:23:18.583Z,73.90
2017-10-15T01:25:46.207Z,74.70
2017-10-15T01:28:13.876Z,76.90
2017-10-15T01:30:41.494Z,77.90
2017-10-15T01:33:09.111Z,76.90
2017-10-15T01:35:36.792Z,75.80
2017-10-15T01:38:04.413Z,74.60
2017-10-15T01:40:32.032Z,74.20
2017-10-15T01:42:59.720Z,72.90
2017-10-15T01:45:27.339Z,73.30
2017-10-15T01:47:54.959Z,74.00
2017-10-15T01:50:22.634Z,73.50
2017-10-15T01:52:50.264Z,72.90
2017-10-15T01:55:17.882Z,73.40
2017-10-15T02:02:54.368Z,74.00
2017-10-15T02:07:49.609Z,71.70
2017-10-15T02:12:44.899Z,72.20
2017-10-15T02:15:12.518Z,72.60
2017-10-15T02:17:40.294Z,72.50
2017-10-15T02:20:07.925Z,72.40
2017-10-15T02:22:35.530Z,73.00
2017-10-15T02:25:03.229Z,73.90
2017-10-15T02:27:30.850Z,74.50
2017-10-15T02:29:58.476Z,73.50
2017-10-15T02:32:26.149Z,73.40
2017-10-15T02:34:53.770Z,72.60
2017-10-15T02:37:21.380Z,73.40
2017-10-15T02:39:49.049Z,73.00
2017-10-15T02:42:16.663Z,72.70
2017-10-15T02:44:44.285Z,72.40
2017-10-15T02:47:11.955Z,72.40
2017-10-15T02:52:07.448Z,72.80
2017-10-15T02:54:35.120Z,73.80
2017-10-15T02:57:02.734Z,73.90
2017-10-15T02:59:30.353Z,75.30
2017-10-15T03:01:58.037Z,75.00
2017-10-15T03:04:25.651Z,74.20
2017-10-15T03:06:53.267Z,75.90
2017-10-15T03:09:20.963Z,74.80
2017-10-15T03:11:48.584Z,74.40
2017-10-15T03:14:17.141Z,74.20
2017-10-15T03:16:44.825Z,75.10
2017-10-15T03:19:12.438Z,76.50
2017-10-15T03:21:40.049Z,75.80
2017-10-15T03:24:07.743Z,76.20
2017-10-15T03:26:35.365Z,74.30
2017-10-15T03:31:44.135Z,73.60
2017-10-15T03:34:11.776Z,73.50
2017-10-15T03:36:39.388Z,73.00
2017-10-15T03:39:07.072Z,72.70
2017-10-15T03:41:34.685Z,73.30
2017-10-15T03:44:02.440Z,73.80
2017-10-15T03:46:30.112Z,73.30
2017-10-15T03:48:57.735Z,74.20
2017-10-15T03:51:25.347Z,75.00
2017-10-15T03:53:53.045Z,74.70
2017-10-15T03:56:20.665Z,75.00
2017-10-15T03:58:48.284Z,74.20
2017-10-15T04:01:15.951Z,74.40
2017-10-15T04:03:43.592Z,73.90
2017-10-15T04:06:11.211Z,73.90
2017-10-15T04:08:38.901Z,72.90
2017-10-15T04:11:06.519Z,74.90
2017-10-15T04:13:34.144Z,75.30
2017-10-15T04:16:01.807Z,76.20
2017-10-15T04:18:29.424Z,75.00
2017-10-15T04:20:57.037Z,73.70
2017-10-15T04:23:24.728Z,73.60
2017-10-15T04:25:52.345Z,74.70
2017-10-15T04:28:19.959Z,74.30
2017-10-15T04:30:47.623Z,73.50
2017-10-15T04:33:15.241Z,73.50
2017-10-15T04:35:43.589Z,73.80
2017-10-15T04:38:11.262Z,72.90
2017-10-15T04:40:38.876Z,73.30
2017-10-15T04:48:02.628Z,75.20
2017-10-15T04:50:30.245Z,73.50
2017-10-15T04:58:04.686Z,73.40
2017-10-15T05:00:32.306Z,73.30
2017-10-15T05:02:59.923Z,73.10
2017-10-15T05:05:27.629Z,73.80
2017-10-15T05:07:55.246Z,75.20
2017-10-15T05:10:22.878Z,76.30
2017-10-15T05:12:50.539Z,75.70
2017-10-15T05:15:18.180Z,75.00
2017-10-15T05:17:45.792Z,74.60
2017-10-15T05:20:13.468Z,73.70
2017-10-15T05:22:41.093Z,74.40
2017-10-15T05:25:08.720Z,73.50
2017-10-15T05:27:36.424Z,75.50
2017-10-15T05:30:04.045Z,76.20
2017-10-15T05:32:32.022Z,76.10
2017-10-15T05:34:59.585Z,75.00
2017-10-15T05:37:28.052Z,74.90
2017-10-15T05:39:55.673Z,75.30
2017-10-15T05:42:23.357Z,75.00
2017-10-15T05:44:50.973Z,75.00
2017-10-15T05:47:19.433Z,75.20
2017-10-15T05:49:47.126Z,75.60
2017-10-15T05:52:14.737Z,77.00
2017-10-15T05:54:42.347Z,76.40
2017-10-15T05:57:10.020Z,76.60
2017-10-15T05:59:37.645Z,76.60
2017-10-15T06:02:05.273Z,75.90
2017-10-15T06:04:32.971Z,75.40
2017-10-15T06:07:00.601Z,74.30
2017-10-15T06:09:28.218Z,74.00
2017-10-15T06:11:55.895Z,74.60
2017-10-15T06:14:23.520Z,74.50
2017-10-15T06:16:51.976Z,74.10
2017-10-15T06:19:19.645Z,76.10
2017-10-15T06:24:26.434Z,76.90
2017-10-15T06:26:54.054Z,76.00
2017-10-15T06:29:21.682Z,78.60
2017-10-15T06:31:49.357Z,77.20
2017-10-15T06:34:17.016Z,76.40
2017-10-15T06:36:44.643Z,75.80
2017-10-15T06:39:12.351Z,77.00
2017-10-15T06:41:40.028Z,74.10
2017-10-15T06:44:07.676Z,73.90
2017-10-15T06:46:35.387Z,74.80
2017-10-15T06:49:03.007Z,75.10
2017-10-15T06:51:30.666Z,74.00
2017-10-15T06:53:58.367Z,72.40
2017-10-15T06:56:26.968Z,70.40
2017-10-15T06:58:54.599Z,70.60
2017-10-15T07:01:22.288Z,71.10
2017-10-15T07:03:50.742Z,70.80
2017-10-15T07:06:18.361Z,69.20
2017-10-15T07:08:46.036Z,69.70
2017-10-15T07:11:13.659Z,69.40
2017-10-15T07:13:41.278Z,69.40
2017-10-15T07:16:09.725Z,68.40
2017-10-15T07:18:37.364Z,66.80
2017-10-15T07:21:04.995Z,66.70
2017-10-15T07:23:32.671Z,65.30
2017-10-15T07:26:00.300Z,64.80
2017-10-15T07:28:27.920Z,65.00
2017-10-15T07:30:55.596Z,62.90
2017-10-15T07:33:23.242Z,63.00
2017-10-15T07:35:50.842Z,63.60
2017-10-15T07:38:18.578Z,62.70
2017-10-15T07:40:46.173Z,62.40
2017-10-15T07:43:13.836Z,63.90
2017-10-15T07:45:41.517Z,63.40
2017-10-15T07:50:48.310Z,61.10
2017-10-15T07:53:15.940Z,60.90
2017-10-15T07:55:43.565Z,60.90
2017-10-15T07:58:11.255Z,59.40
2017-10-15T08:03:07.440Z,55.70
2017-10-15T08:05:35.544Z,57.20
2017-10-15T08:08:03.062Z,55.70
2017-10-15T08:10:30.688Z,54.80
2017-10-15T08:12:58.362Z,54.30
2017-10-15T08:15:26.010Z,54.40
2017-10-15T08:17:53.636Z,54.50
2017-10-15T08:20:21.329Z,53.30
2017-10-15T08:22:48.957Z,53.00
2017-10-15T08:25:16.576Z,54.40
2017-10-15T08:27:44.280Z,52.50
2017-10-15T08:30:11.883Z,53.60
2017-10-15T08:32:39.527Z,51.80
2017-10-15T08:35:08.039Z,51.10
2017-10-15T08:37:35.673Z,51.30
2017-10-15T08:40:03.324Z,50.00
2017-10-15T08:42:31.018Z,49.50
2017-10-15T08:44:58.641Z,51.10
2017-10-15T08:47:26.264Z,50.60
2017-10-15T08:49:54.497Z,53.80
2017-10-15T08:52:22.130Z,54.60
2017-10-15T08:54:51.923Z,53.20
2017-10-15T08:57:20.093Z,51.30
2017-10-15T08:59:47.295Z,50.80
2017-10-15T09:02:14.993Z,49.60
2017-10-15T09:04:42.673Z,49.60
2017-10-15T09:07:10.322Z,48.70
2017-10-15T09:09:38.905Z,46.60
2017-10-15T09:12:07.643Z,46.80
2017-10-15T09:17:14.504Z,44.70
2017-10-15T09:19:42.121Z,46.30
2017-10-15T09:22:09.743Z,45.00
2017-10-15T09:24:37.448Z,48.10
2017-10-15T09:27:05.073Z,45.40
2017-10-15T09:29:32.691Z,45.10
2017-10-15T09:32:00.385Z,44.60
2017-10-15T09:34:28.842Z,44.30
2017-10-15T09:36:56.463Z,42.40
2017-10-15T09:39:24.155Z,42.60
2017-10-15T09:41:51.776Z,43.10
2017-10-15T09:44:19.398Z,41.00
2017-10-15T09:46:47.102Z,40.80
2017-10-15T09:49:14.726Z,39.40
2017-10-15T09:51:42.348Z,41.50
2017-10-15T09:54:10.027Z,43.00
2017-10-15T09:56:37.655Z,43.10
2017-10-15T09:59:05.276Z,39.80
2017-10-15T10:01:32.954Z,39.50
2017-10-15T10:04:00.585Z,39.60
2017-10-15T10:06:28.207Z,39.60
2017-10-15T10:08:55.897Z,39.20
2017-10-15T10:11:23.518Z,41.10
2017-10-15T10:13:51.143Z,41.50
2017-10-15T10:16:19.659Z,38.80
2017-10-15T10:18:47.292Z,39.70
2017-10-15T10:21:14.925Z,39.50
2017-10-15T10:23:42.629Z,40.40
2017-10-15T10:26:10.252Z,39.00
2017-10-15T10:28:37.877Z,38.90
2017-10-15T10:31:05.578Z,37.20
2017-10-15T10:33:33.208Z,36.00
2017-10-15T10:38:28.511Z,36.60
2017-10-15T10:40:56.124Z,37.20
2017-10-15T10:46:04.895Z,36.00
2017-10-15T10:48:32.517Z,36.50
2017-10-15T10:51:00.758Z,36.40
2017-10-15T10:53:28.703Z,37.00
2017-10-15T10:55:56.085Z,36.40
2017-10-15T10:58:23.704Z,36.00
2017-10-15T11:00:52.216Z,33.80
2017-10-15T11:03:19.841Z,32.90
2017-10-15T11:05:47.479Z,32.40
2017-10-15T11:08:15.164Z,31.60
2017-10-15T11:10:42.799Z,31.50
2017-10-15T11:13:10.425Z,30.10
2017-10-15T11:15:38.105Z,31.30
2017-10-15T11:18:05.756Z,31.20
2017-10-15T11:20:34.335Z,30.60
2017-10-15T11:23:02.033Z,31.50
2017-10-15T11:25:29.660Z,31.40
2017-10-15T11:27:57.293Z,32.20
2017-10-15T11:30:24.987Z,33.30
2017-10-15T11:32:52.611Z,31.10
2017-10-15T11:35:20.234Z,31.50
2017-10-15T11:37:48.784Z,32.20
2017-10-15T11:40:16.419Z,31.00
2017-10-15T11:42:44.030Z,32.70
2017-10-15T11:45:12.579Z,30.50
2017-10-15T11:47:40.202Z,30.40
2017-10-15T11:50:07.862Z,33.40
2017-10-15T11:52:35.555Z,30.30
2017-10-15T11:55:03.162Z,30.10
2017-10-15T11:57:31.756Z,30.50
2017-10-15T11:59:59.445Z,33.20
2017-10-15T12:02:27.069Z,32.70
2017-10-15T12:04:54.750Z,31.20
2017-10-15T12:07:23.356Z,30.80
2017-10-15T12:09:51.924Z,31.30
2017-10-15T12:17:26.348Z,29.50
2017-10-15T12:22:25.737Z,31.20
2017-10-15T12:24:53.424Z,29.30
2017-10-15T12:27:21.047Z,30.10
2017-10-15T12:29:49.419Z,29.80
2017-10-15T12:32:17.970Z,29.20
2017-10-15T12:34:45.589Z,29.00
2017-10-15T12:37:13.217Z,27.50
2017-10-15T12:39:40.927Z,27.10
2017-10-15T12:42:08.555Z,29.20
2017-10-15T12:44:36.468Z,30.80
2017-10-15T12:47:04.020Z,31.50
2017-10-15T12:49:31.638Z,32.70
2017-10-15T12:51:59.263Z,33.10
2017-10-15T12:56:54.591Z,30.50
2017-10-15T12:59:22.210Z,28.50
2017-10-15T13:01:49.893Z,28.30
2017-10-15T13:04:17.763Z,31.20
2017-10-15T13:06:45.356Z,30.90
2017-10-15T13:09:13.040Z,29.60
2017-10-15T13:11:40.665Z,30.30
2017-10-15T13:14:08.420Z,31.30
2017-10-15T13:16:36.005Z,30.00
2017-10-15T13:19:03.646Z,31.30
2017-10-15T13:21:31.276Z,31.40
2017-10-15T13:23:58.970Z,31.60
2017-10-15T13:26:26.593Z,32.60
2017-10-15T13:34:03.000Z,34.30
2017-10-15T13:36:30.628Z,33.10
2017-10-15T13:38:58.329Z,31.80
2017-10-15T13:41:25.974Z,32.20
2017-10-15T13:43:53.607Z,33.40
2017-10-15T13:46:22.141Z,34.20
2017-10-15T13:48:49.778Z,34.00
2017-10-15T13:51:17.426Z,33.90
2017-10-15T13:53:45.165Z,34.20
2017-10-15T13:56:13.632Z,32.60
2017-10-15T13:58:41.253Z,33.70
2017-10-15T14:01:08.967Z,34.70
2017-10-15T14:03:36.589Z,34.30
2017-10-15T14:06:04.217Z,32.90
2017-10-15T14:08:31.903Z,33.00
2017-10-15T14:10:59.554Z,33.50
2017-10-15T14:13:27.204Z,33.10
2017-10-15T14:15:54.885Z,33.60
2017-10-15T14:18:22.520Z,33.00
2017-10-15T14:20:50.150Z,32.40
2017-10-15T14:23:17.834Z,33.30
2017-10-15T14:25:45.471Z,33.50
2017-10-15T14:28:13.088Z,32.80
2017-10-15T14:30:40.801Z,33.50
2017-10-15T14:33:08.421Z,32.20
2017-10-15T14:35:36.062Z,32.90
2017-10-15T14:38:03.744Z,34.30
2017-10-15T14:40:31.387Z,32.60
2017-10-15T14:42:59.835Z,32.30
2017-10-15T14:50:34.303Z,32.60
2017-10-15T14:53:01.929Z,33.40
2017-10-15T14:55:29.545Z,34.00
2017-10-15T14:57:57.229Z,33.80
2017-10-15T15:00:24.856Z,34.00
2017-10-15T15:02:53.205Z,34.50
2017-10-15T15:05:20.888Z,36.00
2017-10-15T15:07:48.511Z,34.30
2017-10-15T15:10:16.139Z,34.70
2017-10-15T15:12:43.816Z,35.40
2017-10-15T15:15:11.448Z,35.30
2017-10-15T15:17:39.080Z,35.40
2017-10-15T15:20:06.761Z,36.20
2017-10-15T15:22:34.393Z,36.80
2017-10-15T15:25:02.011Z,37.70
2017-10-15T15:27:29.719Z,38.70
2017-10-15T15:32:24.979Z,39.40
2017-10-15T15:34:52.689Z,39.80
2017-10-15T15:37:20.319Z,39.90
2017-10-15T15:39:47.959Z,40.30
2017-10-15T15:42:15.644Z,40.40
2017-10-15T15:44:44.107Z,40.30
2017-10-15T15:47:11.732Z,40.50
2017-10-15T15:49:39.452Z,41.30
2017-10-15T15:54:49.361Z,42.10
2017-10-15T15:57:16.985Z,42.70
2017-10-15T15:59:44.620Z,41.70
2017-10-15T16:02:12.329Z,41.80
2017-10-15T16:04:39.947Z,42.30
2017-10-15T16:07:07.588Z,42.40
2017-10-15T16:09:36.237Z,44.80
2017-10-15T16:12:03.861Z,45.70
2017-10-15T16:14:31.484Z,45.10
2017-10-15T16:16:59.163Z,44.80
2017-10-15T16:19:26.788Z,45.50
2017-10-15T16:21:55.347Z,45.30
2017-10-15T16:24:23.027Z,46.00
2017-10-15T16:26:50.649Z,46.40
2017-10-15T16:29:18.281Z,47.90
2017-10-15T16:31:45.977Z,47.90
2017-10-15T16:34:13.594Z,48.80
2017-10-15T16:36:41.240Z,48.70
2017-10-15T16:39:08.943Z,48.80
2017-10-15T16:41:36.568Z,49.20
2017-10-15T16:44:04.192Z,49.20
2017-10-15T16:48:59.504Z,49.60
2017-10-15T16:51:27.415Z,49.00
2017-10-15T16:53:55.879Z,49.00
2017-10-15T16:56:23.603Z,49.60
2017-10-15T16:58:51.119Z,48.70
2017-10-15T17:01:18.826Z,49.30
2017-10-15T17:03:46.450Z,47.60
2017-10-15T17:06:14.061Z,47.50
2017-10-15T17:13:37.064Z,47.60
2017-10-15T17:16:04.767Z,48.60
2017-10-15T17:21:13.576Z,48.30
2017-10-15T17:23:41.200Z,48.50
2017-10-15T17:26:08.821Z,48.50
2017-10-15T17:28:36.498Z,48.70
2017-10-15T17:31:04.119Z,48.60
2017-10-15T17:33:32.472Z,49.00
2017-10-15T17:36:00.160Z,49.30
2017-10-15T17:38:27.790Z,49.50
2017-10-15T17:40:55.427Z,49.90
2017-10-15T17:43:23.252Z,49.70
2017-10-15T17:45:50.985Z,50.60
2017-10-15T17:48:18.550Z,50.10
2017-10-15T17:50:46.247Z,50.30
2017-10-15T17:53:13.881Z,50.80
2017-10-15T17:55:41.686Z,50.40
2017-10-15T17:58:09.414Z,50.70
2017-10-15T18:03:05.535Z,52.60
2017-10-15T18:05:33.211Z,51.80
2017-10-15T18:08:00.852Z,52.30
2017-10-15T18:10:29.217Z,52.00
2017-10-15T18:12:56.925Z,52.90
2017-10-15T18:15:24.575Z,52.30
2017-10-15T18:17:52.209Z,52.90
2017-10-15T18:20:19.874Z,52.40
2017-10-15T18:22:47.519Z,53.50
2017-10-15T18:25:15.164Z,54.00
2017-10-15T18:27:42.851Z,55.50
2017-10-15T18:32:51.623Z,54.20
2017-10-15T18:35:19.981Z,53.80
2017-10-15T18:37:49.456Z,52.50
2017-10-15T18:40:17.225Z,56.80
2017-10-15T18:42:44.870Z,54.10
2017-10-15T18:45:12.508Z,53.10
2017-10-15T18:47:40.220Z,53.80
2017-10-15T18:50:07.832Z,52.90
2017-10-15T18:52:35.462Z,53.40
2017-10-15T18:55:03.234Z,53.40
2017-10-15T18:57:30.984Z,53.80
2017-10-15T18:59:59.444Z,54.10
2017-10-15T19:02:27.114Z,54.10
2017-10-15T19:04:54.745Z,54.50
2017-10-15T19:07:22.416Z,54.50
2017-10-15T19:09:50.178Z,54.90
2017-10-15T19:12:18.695Z,55.10
2017-10-15T19:14:46.508Z,56.80
2017-10-15T19:17:14.240Z,57.10
2017-10-15T19:19:42.070Z,56.80
2017-10-15T19:22:10.681Z,57.60
2017-10-15T19:24:38.542Z,57.70
2017-10-15T19:27:06.161Z,57.00
2017-10-15T19:29:33.785Z,56.70
2017-10-15T19:34:29.364Z,57.80
2017-10-15T19:39:25.078Z,59.70
2017-10-15T19:41:53.822Z,58.50
2017-10-15T19:44:21.375Z,59.00
2017-10-15T19:49:30.181Z,58.60
2017-10-15T19:51:57.966Z,58.80
2017-10-15T19:54:25.637Z,58.50
2017-10-15T19:56:53.258Z,59.10
2017-10-15T19:59:20.952Z,59.50
2017-10-15T20:01:49.471Z,60.30
2017-10-15T20:09:12.638Z,60.70
2017-10-15T20:11:40.480Z,60.10
2017-10-15T20:14:08.274Z,61.20
2017-10-15T20:19:03.669Z,60.80
2017-10-15T20:21:31.339Z,60.70
2017-10-15T20:23:59.037Z,61.50
2017-10-15T20:26:26.666Z,61.90
2017-10-15T20:28:54.295Z,62.90
2017-10-15T20:31:22.147Z,62.20
2017-10-15T20:33:49.771Z,62.00
2017-10-15T20:36:17.429Z,61.10
2017-10-15T20:38:45.137Z,60.70
2017-10-15T20:41:13.489Z,61.10
2017-10-15T20:43:41.187Z,60.90
2017-10-15T20:46:08.864Z,60.40
2017-10-15T20:48:36.514Z,60.40
2017-10-15T20:51:04.160Z,64.80
2017-10-15T20:53:31.853Z,62.50
2017-10-15T20:58:27.191Z,62.30
2017-10-15T21:00:54.897Z,61.40
2017-10-15T21:03:22.516Z,61.80
2017-10-15T21:05:50.144Z,61.90
2017-10-15T21:08:17.880Z,61.70
2017-10-15T21:10:45.515Z,60.70
2017-10-15T21:13:13.143Z,60.70
2017-10-15T21:18:20.023Z,60.70
2017-10-15T21:20:47.976Z,61.00
2017-10-15T21:23:15.590Z,60.40
2017-10-15T21:25:44.191Z,60.90
2017-10-15T21:28:11.871Z,61.50
2017-10-15T21:30:40.401Z,61.70
2017-10-15T21:33:08.012Z,63.20
2017-10-15T21:35:35.724Z,62.80
2017-10-15T21:38:03.348Z,63.20
2017-10-15T21:40:30.978Z,63.50
2017-10-15T21:42:58.697Z,63.90
2017-10-15T21:45:26.292Z,64.00
2017-10-15T21:47:53.913Z,64.50
2017-10-15T21:50:21.588Z,66.10
2017-10-15T21:52:49.233Z,67.00
2017-10-15T21:55:16.866Z,66.90
2017-10-15T21:57:44.523Z,65.90
2017-10-15T22:00:12.174Z,65.00
2017-10-15T22:02:39.794Z,64.90
2017-10-15T22:05:07.465Z,64.80
2017-10-15T22:07:35.087Z,65.10
2017-10-15T22:10:03.232Z,66.10
2017-10-15T22:12:31.049Z,66.70
2017-10-15T22:14:58.548Z,65.90
2017-10-15T22:17:26.167Z,65.50
2017-10-15T22:19:53.889Z,64.40
2017-10-15T22:22:25.624Z,65.10
2017-10-15T22:24:53.148Z,64.70
2017-10-15T22:27:20.910Z,64.40
2017-10-15T22:29:48.396Z,65.30
2017-10-15T22:32:16.077Z,65.00
2017-10-15T22:34:43.704Z,64.90
2017-10-15T22:37:11.317Z,64.80
2017-10-15T22:42:18.115Z,65.80
2017-10-15T22:44:45.801Z,65.60
2017-10-15T22:47:13.424Z,64.70
2017-10-15T22:49:41.093Z,65.80
2017-10-15T22:52:08.808Z,65.70
2017-10-15T22:54:36.420Z,65.80
2017-10-15T22:57:04.917Z,65.80
2017-10-15T22:59:32.600Z,65.90
2017-10-15T23:02:00.224Z,66.60
2017-10-15T23:04:28.630Z,66.40
2017-10-15T23:06:56.306Z,66.70
2017-10-15T23:09:23.928Z,67.10
2017-10-15T23:11:51.548Z,66.60
2017-10-15T23:14:19.257Z,67.00
2017-10-15T23:16:46.868Z,68.70
2017-10-15T23:19:15.309Z,68.00
2017-10-15T23:21:43.011Z,67.50
2017-10-15T23:24:10.645Z,67.80
2017-10-15T23:26:38.253Z,67.10
2017-10-15T23:29:05.935Z,66.80
2017-10-15T23:31:33.561Z,66.00
2017-10-15T23:36:28.889Z,68.20
2017-10-15T23:38:56.519Z,68.90
2017-10-15T23:41:24.144Z,67.60
2017-10-15T23:43:51.831Z,67.60
2017-10-15T23:46:19.452Z,68.20
2017-10-15T23:48:47.068Z,68.00
2017-10-15T23:51:14.776Z,68.10
2017-10-15T23:53:43.343Z,68.10
2017-10-15T23:56:10.965Z,69.30
2017-10-15T23:58:38.684Z,69.60
